sensor_id;sensor_type;location;lat;lon;timestamp;temperature;humidity
48604;DHT22;32708;51.212;6.788;2023-02-01T00:00:45;7.60;99.90
48604;DHT22;32708;51.212;6.788;2023-02-01T00:03:11;7.40;99.90
48604;DHT22;32708;51.212;6.788;2023-02-01T00:05:38;7.20;99.90
48604;DHT22;32708;51.212;6.788;2023-02-01T00:08:04;7.30;99.90
48604;DHT22;32708;51.212;6.788;2023-02-01T00:10:31;7.40;99.90
48604;DHT22;32708;51.212;6.788;2023-02-01T00:12:57;7.30;99.90
48604;DHT22;32708;51.212;6.788;2023-02-01T00:15:23;7.40;99.90
48604;DHT22;32708;51.212;6.788;2023-02-01T00:17:54;7.20;99.90
48604;DHT22;32708;51.212;6.788;2023-02-01T00:20:20;7.20;99.90
48604;DHT22;32708;51.212;6.788;2023-02-01T00:22:46;7.20;99.90
48604;DHT22;32708;51.212;6.788;2023-02-01T00:25:12;7.20;99.90
48604;DHT22;32708;51.212;6.788;2023-02-01T00:27:38;7.10;99.90
48604;DHT22;32708;51.212;6.788;2023-02-01T00:30:05;7.10;99.90
48604;DHT22;32708;51.212;6.788;2023-02-01T00:32:31;7.30;99.90
48604;DHT22;32708;51.212;6.788;2023-02-01T00:34:57;7.20;99.90
48604;DHT22;32708;51.212;6.788;2023-02-01T00:37:23;7.20;99.90
48604;DHT22;32708;51.212;6.788;2023-02-01T00:39:49;7.20;99.90
48604;DHT22;32708;51.212;6.788;2023-02-01T00:42:16;7.10;99.90
48604;DHT22;32708;51.212;6.788;2023-02-01T00:44:42;7.20;99.90
48604;DHT22;32708;51.212;6.788;2023-02-01T00:47:08;7.50;99.90
48604;DHT22;32708;51.212;6.788;2023-02-01T00:49:34;7.20;99.90
48604;DHT22;32708;51.212;6.788;2023-02-01T00:52:00;7.30;99.90
48604;DHT22;32708;51.212;6.788;2023-02-01T00:54:26;7.20;99.90
48604;DHT22;32708;51.212;6.788;2023-02-01T00:56:52;7.20;99.90
48604;DHT22;32708;51.212;6.788;2023-02-01T00:59:18;7.10;99.90
48604;DHT22;32708;51.212;6.788;2023-02-01T01:01:44;7.10;99.90
48604;DHT22;32708;51.212;6.788;2023-02-01T01:04:10;7.00;99.90
48604;DHT22;32708;51.212;6.788;2023-02-01T01:06:37;7.00;99.90
48604;DHT22;32708;51.212;6.788;2023-02-01T01:09:05;7.10;99.90
48604;DHT22;32708;51.212;6.788;2023-02-01T01:11:35;7.10;99.90
48604;DHT22;32708;51.212;6.788;2023-02-01T01:14:04;7.10;99.90
48604;DHT22;32708;51.212;6.788;2023-02-01T01:16:31;7.50;99.90
48604;DHT22;32708;51.212;6.788;2023-02-01T01:18:58;7.50;99.90
48604;DHT22;32708;51.212;6.788;2023-02-01T01:21:25;7.20;99.90
48604;DHT22;32708;51.212;6.788;2023-02-01T01:23:52;7.20;99.90
48604;DHT22;32708;51.212;6.788;2023-02-01T01:26:21;7.20;99.90
48604;DHT22;32708;51.212;6.788;2023-02-01T01:28:48;7.30;99.90
48604;DHT22;32708;51.212;6.788;2023-02-01T01:31:19;7.20;99.90
48604;DHT22;32708;51.212;6.788;2023-02-01T01:33:54;7.30;99.90
48604;DHT22;32708;51.212;6.788;2023-02-01T01:36:21;7.20;99.90
48604;DHT22;32708;51.212;6.788;2023-02-01T01:38:47;7.10;99.90
48604;DHT22;32708;51.212;6.788;2023-02-01T01:41:18;7.20;99.90
48604;DHT22;32708;51.212;6.788;2023-02-01T01:43:57;7.50;99.90
48604;DHT22;32708;51.212;6.788;2023-02-01T01:46:32;7.10;99.90
48604;DHT22;32708;51.212;6.788;2023-02-01T01:49:05;7.00;99.90
48604;DHT22;32708;51.212;6.788;2023-02-01T01:51:38;7.00;99.90
48604;DHT22;32708;51.212;6.788;2023-02-01T01:54:18;6.90;99.90
48604;DHT22;32708;51.212;6.788;2023-02-01T01:56:52;7.00;99.90
48604;DHT22;32708;51.212;6.788;2023-02-01T01:59:22;6.90;99.90
48604;DHT22;32708;51.212;6.788;2023-02-01T02:01:51;6.90;99.90
48604;DHT22;32708;51.212;6.788;2023-02-01T02:04:19;6.90;99.90
48604;DHT22;32708;51.212;6.788;2023-02-01T02:06:59;6.90;99.90
48604;DHT22;32708;51.212;6.788;2023-02-01T02:09:25;6.90;99.90
48604;DHT22;32708;51.212;6.788;2023-02-01T02:11:51;6.80;99.90
48604;DHT22;32708;51.212;6.788;2023-02-01T02:14:20;6.70;99.90
48604;DHT22;32708;51.212;6.788;2023-02-01T02:36:18;6.60;99.90
48604;DHT22;32708;51.212;6.788;2023-02-01T02:41:42;6.60;99.90
48604;DHT22;32708;51.212;6.788;2023-02-01T02:45:16;6.50;99.90
48604;DHT22;32708;51.212;6.788;2023-02-01T02:48:44;6.60;99.90
48604;DHT22;32708;51.212;6.788;2023-02-01T02:51:12;6.60;99.90
48604;DHT22;32708;51.212;6.788;2023-02-01T02:54:07;6.50;99.90
48604;DHT22;32708;51.212;6.788;2023-02-01T02:56:56;6.50;99.90
48604;DHT22;32708;51.212;6.788;2023-02-01T02:59:44;6.40;99.90
48604;DHT22;32708;51.212;6.788;2023-02-01T03:02:33;6.40;99.90
48604;DHT22;32708;51.212;6.788;2023-02-01T03:05:18;6.50;99.90
48604;DHT22;32708;51.212;6.788;2023-02-01T03:10:26;6.40;99.90
48604;DHT22;32708;51.212;6.788;2023-02-01T03:12:55;6.40;99.90
48604;DHT22;32708;51.212;6.788;2023-02-01T03:15:43;6.50;99.90
48604;DHT22;32708;51.212;6.788;2023-02-01T03:18:37;6.60;99.90
48604;DHT22;32708;51.212;6.788;2023-02-01T03:21:12;6.50;99.90
48604;DHT22;32708;51.212;6.788;2023-02-01T03:23:43;6.50;99.90
48604;DHT22;32708;51.212;6.788;2023-02-01T03:26:14;6.60;99.90
48604;DHT22;32708;51.212;6.788;2023-02-01T03:28:49;6.50;99.90
48604;DHT22;32708;51.212;6.788;2023-02-01T03:31:16;6.60;99.90
48604;DHT22;32708;51.212;6.788;2023-02-01T03:33:42;6.50;99.90
48604;DHT22;32708;51.212;6.788;2023-02-01T03:36:17;6.60;99.90
48604;DHT22;32708;51.212;6.788;2023-02-01T03:41:43;6.60;99.90
48604;DHT22;32708;51.212;6.788;2023-02-01T03:44:29;6.60;99.90
48604;DHT22;32708;51.212;6.788;2023-02-01T03:49:31;6.70;99.90
48604;DHT22;32708;51.212;6.788;2023-02-01T03:52:01;6.70;99.90
48604;DHT22;32708;51.212;6.788;2023-02-01T03:54:28;6.80;99.90
48604;DHT22;32708;51.212;6.788;2023-02-01T03:56:59;6.80;99.90
48604;DHT22;32708;51.212;6.788;2023-02-01T03:59:26;7.00;99.90
48604;DHT22;32708;51.212;6.788;2023-02-01T04:01:52;6.80;99.90
48604;DHT22;32708;51.212;6.788;2023-02-01T04:04:18;7.00;99.90
48604;DHT22;32708;51.212;6.788;2023-02-01T04:06:51;6.80;99.90
48604;DHT22;32708;51.212;6.788;2023-02-01T04:09:18;6.80;99.90
48604;DHT22;32708;51.212;6.788;2023-02-01T04:11:44;6.90;99.90
48604;DHT22;32708;51.212;6.788;2023-02-01T04:14:11;6.80;99.90
48604;DHT22;32708;51.212;6.788;2023-02-01T04:16:37;6.80;99.90
48604;DHT22;32708;51.212;6.788;2023-02-01T04:19:03;6.90;99.90
48604;DHT22;32708;51.212;6.788;2023-02-01T04:21:29;6.80;99.90
48604;DHT22;32708;51.212;6.788;2023-02-01T04:23:55;6.80;99.90
48604;DHT22;32708;51.212;6.788;2023-02-01T04:26:21;6.80;99.90
48604;DHT22;32708;51.212;6.788;2023-02-01T04:28:47;7.00;99.90
48604;DHT22;32708;51.212;6.788;2023-02-01T04:31:15;6.80;99.90
48604;DHT22;32708;51.212;6.788;2023-02-01T04:33:41;6.70;99.90
48604;DHT22;32708;51.212;6.788;2023-02-01T04:36:07;6.70;99.90
48604;DHT22;32708;51.212;6.788;2023-02-01T04:38:33;6.70;99.90
48604;DHT22;32708;51.212;6.788;2023-02-01T04:41:00;6.60;99.90
48604;DHT22;32708;51.212;6.788;2023-02-01T04:43:26;6.50;99.90
48604;DHT22;32708;51.212;6.788;2023-02-01T04:45:52;6.60;99.90
48604;DHT22;32708;51.212;6.788;2023-02-01T04:48:20;6.80;99.90
48604;DHT22;32708;51.212;6.788;2023-02-01T04:50:48;6.60;99.90
48604;DHT22;32708;51.212;6.788;2023-02-01T04:53:16;6.50;99.90
48604;DHT22;32708;51.212;6.788;2023-02-01T04:55:42;6.80;99.90
48604;DHT22;32708;51.212;6.788;2023-02-01T04:58:10;6.50;99.90
48604;DHT22;32708;51.212;6.788;2023-02-01T05:00:37;6.50;99.90
48604;DHT22;32708;51.212;6.788;2023-02-01T05:03:03;6.50;99.90
48604;DHT22;32708;51.212;6.788;2023-02-01T05:05:29;6.60;99.90
48604;DHT22;32708;51.212;6.788;2023-02-01T05:07:56;6.50;99.90
48604;DHT22;32708;51.212;6.788;2023-02-01T05:10:22;6.50;99.90
48604;DHT22;32708;51.212;6.788;2023-02-01T05:12:48;6.50;99.90
48604;DHT22;32708;51.212;6.788;2023-02-01T05:15:32;6.50;99.90
48604;DHT22;32708;51.212;6.788;2023-02-01T05:17:58;6.50;99.90
48604;DHT22;32708;51.212;6.788;2023-02-01T05:20:25;6.50;99.90
48604;DHT22;32708;51.212;6.788;2023-02-01T05:22:51;6.50;99.90
48604;DHT22;32708;51.212;6.788;2023-02-01T05:25:17;6.40;99.90
48604;DHT22;32708;51.212;6.788;2023-02-01T05:27:43;6.40;99.90
48604;DHT22;32708;51.212;6.788;2023-02-01T05:30:09;6.40;99.90
48604;DHT22;32708;51.212;6.788;2023-02-01T05:32:36;6.40;99.90
48604;DHT22;32708;51.212;6.788;2023-02-01T05:35:02;6.50;99.90
48604;DHT22;32708;51.212;6.788;2023-02-01T05:37:28;6.40;99.90
48604;DHT22;32708;51.212;6.788;2023-02-01T05:39:54;6.40;99.90
48604;DHT22;32708;51.212;6.788;2023-02-01T05:42:20;6.40;99.90
48604;DHT22;32708;51.212;6.788;2023-02-01T05:44:46;6.40;99.90
48604;DHT22;32708;51.212;6.788;2023-02-01T05:47:12;6.40;99.90
48604;DHT22;32708;51.212;6.788;2023-02-01T05:49:39;6.40;99.90
48604;DHT22;32708;51.212;6.788;2023-02-01T05:52:05;6.40;99.90
48604;DHT22;32708;51.212;6.788;2023-02-01T05:54:31;6.40;99.90
48604;DHT22;32708;51.212;6.788;2023-02-01T05:56:57;6.40;99.90
48604;DHT22;32708;51.212;6.788;2023-02-01T05:59:23;6.40;99.90
48604;DHT22;32708;51.212;6.788;2023-02-01T06:01:49;6.40;99.90
48604;DHT22;32708;51.212;6.788;2023-02-01T06:04:15;6.30;99.90
48604;DHT22;32708;51.212;6.788;2023-02-01T06:06:41;6.20;99.90
48604;DHT22;32708;51.212;6.788;2023-02-01T06:09:07;6.50;99.90
48604;DHT22;32708;51.212;6.788;2023-02-01T06:11:33;6.40;99.90
48604;DHT22;32708;51.212;6.788;2023-02-01T06:14:00;6.20;99.90
48604;DHT22;32708;51.212;6.788;2023-02-01T06:16:26;6.30;99.90
48604;DHT22;32708;51.212;6.788;2023-02-01T06:18:52;6.20;99.90
48604;DHT22;32708;51.212;6.788;2023-02-01T06:21:18;6.30;99.90
48604;DHT22;32708;51.212;6.788;2023-02-01T06:23:50;6.40;99.90
48604;DHT22;32708;51.212;6.788;2023-02-01T06:26:16;6.40;99.90
48604;DHT22;32708;51.212;6.788;2023-02-01T06:28:44;6.80;99.90
48604;DHT22;32708;51.212;6.788;2023-02-01T06:31:10;7.10;99.90
48604;DHT22;32708;51.212;6.788;2023-02-01T06:33:38;6.50;99.90
48604;DHT22;32708;51.212;6.788;2023-02-01T06:36:06;6.40;99.90
48604;DHT22;32708;51.212;6.788;2023-02-01T06:38:33;6.50;99.90
48604;DHT22;32708;51.212;6.788;2023-02-01T06:41:03;6.50;99.90
48604;DHT22;32708;51.212;6.788;2023-02-01T06:43:30;6.50;99.90
48604;DHT22;32708;51.212;6.788;2023-02-01T06:46:07;6.60;99.90
48604;DHT22;32708;51.212;6.788;2023-02-01T06:48:34;6.60;99.90
48604;DHT22;32708;51.212;6.788;2023-02-01T06:51:00;6.60;99.90
48604;DHT22;32708;51.212;6.788;2023-02-01T06:53:27;6.60;99.90
48604;DHT22;32708;51.212;6.788;2023-02-01T06:55:54;6.90;99.90
48604;DHT22;32708;51.212;6.788;2023-02-01T06:58:21;6.80;99.90
48604;DHT22;32708;51.212;6.788;2023-02-01T07:00:47;6.60;99.90
48604;DHT22;32708;51.212;6.788;2023-02-01T07:03:14;6.70;99.90
48604;DHT22;32708;51.212;6.788;2023-02-01T07:05:40;6.70;99.90
48604;DHT22;32708;51.212;6.788;2023-02-01T07:08:06;6.70;99.90
48604;DHT22;32708;51.212;6.788;2023-02-01T07:10:34;6.70;99.90
48604;DHT22;32708;51.212;6.788;2023-02-01T07:13:00;6.70;99.90
48604;DHT22;32708;51.212;6.788;2023-02-01T07:15:26;6.70;99.90
48604;DHT22;32708;51.212;6.788;2023-02-01T07:17:55;6.70;99.90
48604;DHT22;32708;51.212;6.788;2023-02-01T07:20:21;6.70;99.90
48604;DHT22;32708;51.212;6.788;2023-02-01T07:22:47;6.70;99.90
48604;DHT22;32708;51.212;6.788;2023-02-01T07:25:13;6.70;99.90
48604;DHT22;32708;51.212;6.788;2023-02-01T07:27:39;6.70;99.90
48604;DHT22;32708;51.212;6.788;2023-02-01T07:30:07;7.20;99.90
48604;DHT22;32708;51.212;6.788;2023-02-01T07:32:33;6.80;99.90
48604;DHT22;32708;51.212;6.788;2023-02-01T07:34:59;6.80;99.90
48604;DHT22;32708;51.212;6.788;2023-02-01T07:37:25;6.80;99.90
48604;DHT22;32708;51.212;6.788;2023-02-01T07:39:51;7.00;99.90
48604;DHT22;32708;51.212;6.788;2023-02-01T07:42:18;6.80;99.90
48604;DHT22;32708;51.212;6.788;2023-02-01T07:44:44;6.80;99.90
48604;DHT22;32708;51.212;6.788;2023-02-01T07:47:10;7.10;99.90
48604;DHT22;32708;51.212;6.788;2023-02-01T07:49:36;6.90;99.90
48604;DHT22;32708;51.212;6.788;2023-02-01T07:52:02;7.00;99.90
48604;DHT22;32708;51.212;6.788;2023-02-01T07:54:28;7.20;99.90
48604;DHT22;32708;51.212;6.788;2023-02-01T07:56:54;7.00;99.90
48604;DHT22;32708;51.212;6.788;2023-02-01T07:59:20;6.90;99.90
48604;DHT22;32708;51.212;6.788;2023-02-01T08:01:46;7.00;99.90
48604;DHT22;32708;51.212;6.788;2023-02-01T08:04:12;7.10;99.90
48604;DHT22;32708;51.212;6.788;2023-02-01T08:06:39;7.10;99.90
48604;DHT22;32708;51.212;6.788;2023-02-01T08:09:07;7.00;99.90
48604;DHT22;32708;51.212;6.788;2023-02-01T08:11:36;6.90;99.90
48604;DHT22;32708;51.212;6.788;2023-02-01T08:14:05;7.00;99.90
48604;DHT22;32708;51.212;6.788;2023-02-01T08:16:33;7.00;99.90
48604;DHT22;32708;51.212;6.788;2023-02-01T08:19:00;6.90;99.90
48604;DHT22;32708;51.212;6.788;2023-02-01T08:21:28;7.10;99.90
48604;DHT22;32708;51.212;6.788;2023-02-01T08:24:07;7.00;99.90
48604;DHT22;32708;51.212;6.788;2023-02-01T08:26:34;6.90;99.90
48604;DHT22;32708;51.212;6.788;2023-02-01T08:29:03;7.00;99.90
48604;DHT22;32708;51.212;6.788;2023-02-01T08:31:30;7.00;99.90
48604;DHT22;32708;51.212;6.788;2023-02-01T08:33:59;7.00;99.90
48604;DHT22;32708;51.212;6.788;2023-02-01T08:36:28;7.00;99.90
48604;DHT22;32708;51.212;6.788;2023-02-01T08:38:55;7.10;99.90
48604;DHT22;32708;51.212;6.788;2023-02-01T08:41:25;7.00;99.90
48604;DHT22;32708;51.212;6.788;2023-02-01T08:43:51;7.10;99.90
48604;DHT22;32708;51.212;6.788;2023-02-01T08:46:18;7.10;99.90
48604;DHT22;32708;51.212;6.788;2023-02-01T08:48:47;7.10;99.90
48604;DHT22;32708;51.212;6.788;2023-02-01T08:51:16;7.10;99.90
48604;DHT22;32708;51.212;6.788;2023-02-01T08:53:42;7.00;99.90
48604;DHT22;32708;51.212;6.788;2023-02-01T08:56:11;7.10;99.90
48604;DHT22;32708;51.212;6.788;2023-02-01T08:58:37;7.10;99.90
48604;DHT22;32708;51.212;6.788;2023-02-01T09:01:05;7.10;99.90
48604;DHT22;32708;51.212;6.788;2023-02-01T09:03:31;7.00;99.90
48604;DHT22;32708;51.212;6.788;2023-02-01T09:06:05;7.10;99.90
48604;DHT22;32708;51.212;6.788;2023-02-01T09:08:32;7.20;99.90
48604;DHT22;32708;51.212;6.788;2023-02-01T09:11:03;7.10;99.90
48604;DHT22;32708;51.212;6.788;2023-02-01T09:13:30;7.20;99.90
48604;DHT22;32708;51.212;6.788;2023-02-01T09:15:56;7.30;99.90
48604;DHT22;32708;51.212;6.788;2023-02-01T09:18:22;7.20;99.90
48604;DHT22;32708;51.212;6.788;2023-02-01T09:20:48;7.20;99.90
48604;DHT22;32708;51.212;6.788;2023-02-01T09:23:14;7.20;99.90
48604;DHT22;32708;51.212;6.788;2023-02-01T09:25:40;7.20;99.90
48604;DHT22;32708;51.212;6.788;2023-02-01T09:28:06;7.20;99.90
48604;DHT22;32708;51.212;6.788;2023-02-01T09:30:36;7.20;99.90
48604;DHT22;32708;51.212;6.788;2023-02-01T09:33:02;7.20;99.90
48604;DHT22;32708;51.212;6.788;2023-02-01T09:35:29;7.20;99.90
48604;DHT22;32708;51.212;6.788;2023-02-01T09:37:55;7.20;99.90
48604;DHT22;32708;51.212;6.788;2023-02-01T09:40:21;7.20;99.90
48604;DHT22;32708;51.212;6.788;2023-02-01T09:45:59;7.20;99.90
48604;DHT22;32708;51.212;6.788;2023-02-01T09:48:32;7.30;99.90
48604;DHT22;32708;51.212;6.788;2023-02-01T09:51:04;7.40;99.90
48604;DHT22;32708;51.212;6.788;2023-02-01T09:53:41;7.40;99.90
48604;DHT22;32708;51.212;6.788;2023-02-01T09:56:12;7.20;99.90
48604;DHT22;32708;51.212;6.788;2023-02-01T09:58:51;7.30;99.90
48604;DHT22;32708;51.212;6.788;2023-02-01T10:01:26;7.30;99.90
48604;DHT22;32708;51.212;6.788;2023-02-01T10:04:08;7.20;99.90
48604;DHT22;32708;51.212;6.788;2023-02-01T10:28:36;7.40;99.90
48604;DHT22;32708;51.212;6.788;2023-02-01T10:31:05;7.40;99.90
48604;DHT22;32708;51.212;6.788;2023-02-01T10:34:13;7.50;99.90
48604;DHT22;32708;51.212;6.788;2023-02-01T10:36:30;7.60;99.90
48604;DHT22;32708;51.212;6.788;2023-02-01T10:38:58;7.60;99.90
48604;DHT22;32708;51.212;6.788;2023-02-01T10:41:32;7.70;99.90
48604;DHT22;32708;51.212;6.788;2023-02-01T10:44:03;7.70;99.90
48604;DHT22;32708;51.212;6.788;2023-02-01T10:46:30;7.70;99.90
48604;DHT22;32708;51.212;6.788;2023-02-01T10:49:01;7.70;99.90
48604;DHT22;32708;51.212;6.788;2023-02-01T10:52:04;7.70;99.90
48604;DHT22;32708;51.212;6.788;2023-02-01T10:54:35;7.80;99.90
48604;DHT22;32708;51.212;6.788;2023-02-01T10:57:08;7.70;99.90
48604;DHT22;32708;51.212;6.788;2023-02-01T10:59:34;7.80;99.90
48604;DHT22;32708;51.212;6.788;2023-02-01T11:02:29;7.80;99.90
48604;DHT22;32708;51.212;6.788;2023-02-01T11:05:04;7.80;99.90
48604;DHT22;32708;51.212;6.788;2023-02-01T11:07:31;7.80;99.90
48604;DHT22;32708;51.212;6.788;2023-02-01T11:09:58;7.90;99.90
48604;DHT22;32708;51.212;6.788;2023-02-01T11:12:29;7.90;99.90
48604;DHT22;32708;51.212;6.788;2023-02-01T11:15:22;7.90;99.90
48604;DHT22;32708;51.212;6.788;2023-02-01T11:17:51;8.10;99.90
48604;DHT22;32708;51.212;6.788;2023-02-01T11:20:36;8.00;99.90
48604;DHT22;32708;51.212;6.788;2023-02-01T11:23:03;8.00;99.90
48604;DHT22;32708;51.212;6.788;2023-02-01T11:25:33;8.00;99.90
48604;DHT22;32708;51.212;6.788;2023-02-01T11:28:02;8.00;99.90
48604;DHT22;32708;51.212;6.788;2023-02-01T11:30:38;8.00;99.90
48604;DHT22;32708;51.212;6.788;2023-02-01T11:33:13;8.00;99.90
48604;DHT22;32708;51.212;6.788;2023-02-01T11:35:42;8.00;99.90
48604;DHT22;32708;51.212;6.788;2023-02-01T11:40:46;8.10;99.90
48604;DHT22;32708;51.212;6.788;2023-02-01T11:43:23;8.10;99.90
48604;DHT22;32708;51.212;6.788;2023-02-01T11:46:01;8.20;99.90
48604;DHT22;32708;51.212;6.788;2023-02-01T11:48:30;8.20;99.90
48604;DHT22;32708;51.212;6.788;2023-02-01T11:51:21;8.30;99.90
48604;DHT22;32708;51.212;6.788;2023-02-01T12:08:28;8.20;99.90
48604;DHT22;32708;51.212;6.788;2023-02-01T12:14:03;8.20;99.90
48604;DHT22;32708;51.212;6.788;2023-02-01T12:16:58;8.20;99.90
48604;DHT22;32708;51.212;6.788;2023-02-01T12:24:52;8.30;99.90
48604;DHT22;32708;51.212;6.788;2023-02-01T12:27:38;8.20;99.90
48604;DHT22;32708;51.212;6.788;2023-02-01T12:33:27;8.20;99.90
48604;DHT22;32708;51.212;6.788;2023-02-01T12:49:59;8.10;99.90
48604;DHT22;32708;51.212;6.788;2023-02-01T12:52:46;8.10;99.90
48604;DHT22;32708;51.212;6.788;2023-02-01T12:55:23;8.10;99.90
48604;DHT22;32708;51.212;6.788;2023-02-01T12:58:07;8.10;99.90
48604;DHT22;32708;51.212;6.788;2023-02-01T13:00:59;8.30;99.90
48604;DHT22;32708;51.212;6.788;2023-02-01T13:03:44;8.30;99.90
48604;DHT22;32708;51.212;6.788;2023-02-01T13:06:15;8.20;99.90
48604;DHT22;32708;51.212;6.788;2023-02-01T13:08:48;8.30;99.90
48604;DHT22;32708;51.212;6.788;2023-02-01T13:17:06;8.40;99.90
48604;DHT22;32708;51.212;6.788;2023-02-01T13:19:45;8.40;99.90
48604;DHT22;32708;51.212;6.788;2023-02-01T13:22:19;8.40;99.90
48604;DHT22;32708;51.212;6.788;2023-02-01T13:27:39;8.30;99.90
48604;DHT22;32708;51.212;6.788;2023-02-01T13:30:41;8.40;99.90
48604;DHT22;32708;51.212;6.788;2023-02-01T13:33:23;8.40;99.90
48604;DHT22;32708;51.212;6.788;2023-02-01T13:39:09;8.40;99.90
48604;DHT22;32708;51.212;6.788;2023-02-01T13:42:26;8.50;99.90
48604;DHT22;32708;51.212;6.788;2023-02-01T13:45:05;8.50;99.90
48604;DHT22;32708;51.212;6.788;2023-02-01T13:47:44;8.50;99.90
48604;DHT22;32708;51.212;6.788;2023-02-01T13:52:50;8.60;99.90
48604;DHT22;32708;51.212;6.788;2023-02-01T13:57:58;8.60;99.90
48604;DHT22;32708;51.212;6.788;2023-02-01T14:00:26;8.50;99.90
48604;DHT22;32708;51.212;6.788;2023-02-01T14:10:53;8.70;99.90
48604;DHT22;32708;51.212;6.788;2023-02-01T14:13:41;8.70;99.90
48604;DHT22;32708;51.212;6.788;2023-02-01T14:16:16;8.70;99.90
48604;DHT22;32708;51.212;6.788;2023-02-01T14:24:25;8.70;99.90
48604;DHT22;32708;51.212;6.788;2023-02-01T14:27:02;8.70;99.90
48604;DHT22;32708;51.212;6.788;2023-02-01T14:29:35;8.70;99.90
48604;DHT22;32708;51.212;6.788;2023-02-01T14:32:21;8.70;99.90
48604;DHT22;32708;51.212;6.788;2023-02-01T14:42:43;8.70;99.90
48604;DHT22;32708;51.212;6.788;2023-02-01T14:55:53;8.80;99.90
48604;DHT22;32708;51.212;6.788;2023-02-01T15:00:59;8.90;99.90
48604;DHT22;32708;51.212;6.788;2023-02-01T15:03:53;8.90;99.90
48604;DHT22;32708;51.212;6.788;2023-02-01T15:06:25;8.90;99.90
48604;DHT22;32708;51.212;6.788;2023-02-01T15:08:59;8.90;99.90
48604;DHT22;32708;51.212;6.788;2023-02-01T15:11:27;8.90;99.90
48604;DHT22;32708;51.212;6.788;2023-02-01T15:13:54;9.00;99.90
48604;DHT22;32708;51.212;6.788;2023-02-01T15:16:24;8.90;99.90
48604;DHT22;32708;51.212;6.788;2023-02-01T15:19:06;9.00;99.90
48604;DHT22;32708;51.212;6.788;2023-02-01T15:21:43;9.00;99.90
48604;DHT22;32708;51.212;6.788;2023-02-01T15:24:18;8.90;99.90
48604;DHT22;32708;51.212;6.788;2023-02-01T15:26:44;8.90;99.90
48604;DHT22;32708;51.212;6.788;2023-02-01T15:29:12;9.00;99.90
48604;DHT22;32708;51.212;6.788;2023-02-01T15:34:07;8.90;99.90
48604;DHT22;32708;51.212;6.788;2023-02-01T15:36:34;8.90;99.90
48604;DHT22;32708;51.212;6.788;2023-02-01T15:39:22;9.00;99.90
48604;DHT22;32708;51.212;6.788;2023-02-01T15:41:52;8.80;99.90
48604;DHT22;32708;51.212;6.788;2023-02-01T15:44:33;8.80;99.90
48604;DHT22;32708;51.212;6.788;2023-02-01T15:47:08;8.70;99.90
48604;DHT22;32708;51.212;6.788;2023-02-01T15:49:44;8.80;99.90
48604;DHT22;32708;51.212;6.788;2023-02-01T15:52:23;8.80;99.90
48604;DHT22;32708;51.212;6.788;2023-02-01T15:54:57;8.70;99.90
48604;DHT22;32708;51.212;6.788;2023-02-01T15:57:35;8.80;99.90
48604;DHT22;32708;51.212;6.788;2023-02-01T16:00:17;8.80;99.90
48604;DHT22;32708;51.212;6.788;2023-02-01T16:05:40;8.70;99.90
48604;DHT22;32708;51.212;6.788;2023-02-01T16:08:20;8.80;99.90
48604;DHT22;32708;51.212;6.788;2023-02-01T16:10:50;8.70;99.90
48604;DHT22;32708;51.212;6.788;2023-02-01T16:13:18;8.70;99.90
48604;DHT22;32708;51.212;6.788;2023-02-01T16:15:47;8.70;99.90
48604;DHT22;32708;51.212;6.788;2023-02-01T16:18:14;8.70;99.90
48604;DHT22;32708;51.212;6.788;2023-02-01T16:20:42;8.60;99.90
48604;DHT22;32708;51.212;6.788;2023-02-01T16:23:09;8.70;99.90
48604;DHT22;32708;51.212;6.788;2023-02-01T16:25:37;8.60;99.90
48604;DHT22;32708;51.212;6.788;2023-02-01T16:28:04;8.70;99.90
48604;DHT22;32708;51.212;6.788;2023-02-01T16:30:36;8.70;99.90
48604;DHT22;32708;51.212;6.788;2023-02-01T16:33:03;8.60;99.90
48604;DHT22;32708;51.212;6.788;2023-02-01T16:35:37;8.60;99.90
48604;DHT22;32708;51.212;6.788;2023-02-01T16:38:08;8.60;99.90
48604;DHT22;32708;51.212;6.788;2023-02-01T16:40:40;8.70;99.90
48604;DHT22;32708;51.212;6.788;2023-02-01T16:43:15;8.70;99.90
48604;DHT22;32708;51.212;6.788;2023-02-01T16:45:43;8.70;99.90
48604;DHT22;32708;51.212;6.788;2023-02-01T16:50:51;8.70;99.90
48604;DHT22;32708;51.212;6.788;2023-02-01T16:53:19;8.70;99.90
48604;DHT22;32708;51.212;6.788;2023-02-01T16:55:46;8.80;99.90
48604;DHT22;32708;51.212;6.788;2023-02-01T16:58:13;8.60;99.90
48604;DHT22;32708;51.212;6.788;2023-02-01T17:00:39;8.50;99.90
48604;DHT22;32708;51.212;6.788;2023-02-01T17:03:05;8.70;99.90
48604;DHT22;32708;51.212;6.788;2023-02-01T17:05:32;8.60;99.90
48604;DHT22;32708;51.212;6.788;2023-02-01T17:08:03;8.60;99.90
48604;DHT22;32708;51.212;6.788;2023-02-01T17:10:30;8.60;99.90
48604;DHT22;32708;51.212;6.788;2023-02-01T17:12:57;8.60;99.90
48604;DHT22;32708;51.212;6.788;2023-02-01T17:15:29;8.70;99.90
48604;DHT22;32708;51.212;6.788;2023-02-01T17:17:57;8.60;99.90
48604;DHT22;32708;51.212;6.788;2023-02-01T17:20:29;8.60;99.90
48604;DHT22;32708;51.212;6.788;2023-02-01T17:22:57;8.70;99.90
48604;DHT22;32708;51.212;6.788;2023-02-01T17:25:23;8.70;99.90
48604;DHT22;32708;51.212;6.788;2023-02-01T17:27:52;8.70;99.90
48604;DHT22;32708;51.212;6.788;2023-02-01T17:30:18;8.70;99.90
48604;DHT22;32708;51.212;6.788;2023-02-01T17:32:44;8.70;99.90
48604;DHT22;32708;51.212;6.788;2023-02-01T17:35:21;8.80;99.90
48604;DHT22;32708;51.212;6.788;2023-02-01T17:37:48;8.70;99.90
48604;DHT22;32708;51.212;6.788;2023-02-01T17:40:15;8.80;99.90
48604;DHT22;32708;51.212;6.788;2023-02-01T17:42:41;8.80;99.90
48604;DHT22;32708;51.212;6.788;2023-02-01T17:47:56;8.80;99.90
48604;DHT22;32708;51.212;6.788;2023-02-01T17:50:26;8.80;99.90
48604;DHT22;32708;51.212;6.788;2023-02-01T17:52:53;8.80;99.90
48604;DHT22;32708;51.212;6.788;2023-02-01T17:55:22;8.80;99.90
48604;DHT22;32708;51.212;6.788;2023-02-01T17:57:48;8.80;99.90
48604;DHT22;32708;51.212;6.788;2023-02-01T18:00:16;8.70;99.90
48604;DHT22;32708;51.212;6.788;2023-02-01T18:02:43;8.70;99.90
48604;DHT22;32708;51.212;6.788;2023-02-01T18:05:26;8.70;99.90
48604;DHT22;32708;51.212;6.788;2023-02-01T18:07:53;8.70;99.90
48604;DHT22;32708;51.212;6.788;2023-02-01T18:10:20;8.70;99.90
48604;DHT22;32708;51.212;6.788;2023-02-01T18:12:45;8.70;99.90
48604;DHT22;32708;51.212;6.788;2023-02-01T18:15:18;8.70;99.90
48604;DHT22;32708;51.212;6.788;2023-02-01T18:17:45;8.80;99.90
48604;DHT22;32708;51.212;6.788;2023-02-01T18:20:20;8.70;99.90
48604;DHT22;32708;51.212;6.788;2023-02-01T18:22:47;8.70;99.90
48604;DHT22;32708;51.212;6.788;2023-02-01T18:25:17;8.70;99.90
48604;DHT22;32708;51.212;6.788;2023-02-01T18:27:46;8.70;99.90
48604;DHT22;32708;51.212;6.788;2023-02-01T18:30:15;8.60;99.90
48604;DHT22;32708;51.212;6.788;2023-02-01T18:32:43;8.60;99.90
48604;DHT22;32708;51.212;6.788;2023-02-01T18:35:17;8.60;99.90
48604;DHT22;32708;51.212;6.788;2023-02-01T18:37:44;8.60;99.90
48604;DHT22;32708;51.212;6.788;2023-02-01T18:40:19;8.60;99.90
48604;DHT22;32708;51.212;6.788;2023-02-01T18:42:46;8.60;99.90
48604;DHT22;32708;51.212;6.788;2023-02-01T18:47:48;8.70;99.90
48604;DHT22;32708;51.212;6.788;2023-02-01T18:50:15;8.50;99.90